Time;durP1;ratioP1;P1;durP2;ratioP2;P2;SDS_P1;SDS_P2;PMS_P1;PMS_P2;Temp;Humidity;BMP_temperature;BMP_pressure;BME280_temperature;BME280_humidity;BME280_pressure;Samples;Min_cycle;Max_cycle;Signal;HPM_P1;HPM_P2
2024/03/23 00:02:10;;;;;;;135.70;21.73;;;;;;;;;;5032884;28;20064;-74
2024/03/23 00:04:35;;;;;;;16.60;11.15;;;;;;;;;;5050581;28;20032;-73
2024/03/23 00:07:01;;;;;;;14.85;10.88;;;;;;;;;;5045958;28;20074;-74
2024/03/23 00:09:27;;;;;;;16.75;11.40;;;;;;;;;;5045049;28;20076;-74
2024/03/23 00:11:52;;;;;;;25.27;15.85;;;;;;;;;;5030921;28;20539;-74
2024/03/23 00:14:18;;;;;;;24.80;16.52;;;;;;;;;;5046643;28;20033;-74
2024/03/23 00:16:44;;;;;;;26.67;17.15;;;;;;;;;;5045778;28;20032;-74
2024/03/23 00:19:09;;;;;;;25.52;17.00;;;;;;;;;;5046087;28;20032;-74
2024/03/23 00:21:38;;;;;;;22.88;15.70;;;;;;;;;;5044706;28;20126;-74
2024/03/23 00:24:05;;;;;;;21.67;15.63;;;;;;;;;;5049376;28;20496;-74
2024/03/23 00:26:31;;;;;;;20.27;13.63;;;;;;;;;;5046999;28;20493;-74
2024/03/23 00:28:56;;;;;;;24.30;14.95;;;;;;;;;;5044713;28;20067;-74
2024/03/23 00:31:22;;;;;;;24.00;15.02;;;;;;;;;;5045683;28;20079;-74
2024/03/23 00:33:48;;;;;;;24.02;15.55;;;;;;;;;;5041449;28;20111;-74
2024/03/23 00:36:14;;;;;;;19.02;13.32;;;;;;;;;;5040383;28;20394;-74
2024/03/23 00:38:40;;;;;;;23.77;15.77;;;;;;;;;;5046166;28;20112;-74
2024/03/23 00:41:05;;;;;;;22.90;16.58;;;;;;;;;;5043617;28;20060;-74
2024/03/23 00:43:32;;;;;;;20.10;13.98;;;;;;;;;;5046009;28;20480;-74
2024/03/23 00:45:57;;;;;;;19.27;13.20;;;;;;;;;;5044182;28;20112;-73
2024/03/23 00:48:23;;;;;;;21.20;14.27;;;;;;;;;;5044443;28;20083;-74
2024/03/23 00:50:49;;;;;;;20.10;13.57;;;;;;;;;;5044298;28;20091;-73
2024/03/23 00:53:14;;;;;;;22.73;15.55;;;;;;;;;;5046409;28;20087;-73
2024/03/23 00:55:40;;;;;;;20.92;13.75;;;;;;;;;;5047483;28;20644;-74
2024/03/23 00:58:05;;;;;;;19.98;13.25;;;;;;;;;;5040631;28;20026;-73
2024/03/23 01:00:31;;;;;;;20.23;14.32;;;;;;;;;;5043443;28;20056;-73
2024/03/23 01:02:56;;;;;;;19.65;13.55;;;;;;;;;;5040211;28;20034;-74
2024/03/23 01:05:21;;;;;;;19.17;13.32;;;;;;;;;;5045107;28;20041;-73
2024/03/23 01:07:46;;;;;;;20.35;13.82;;;;;;;;;;5049951;28;20032;-74
2024/03/23 01:10:12;;;;;;;22.40;14.57;;;;;;;;;;5043010;28;20056;-74
2024/03/23 01:12:37;;;;;;;23.20;15.02;;;;;;;;;;5042660;28;20211;-74
2024/03/23 01:15:02;;;;;;;25.60;17.52;;;;;;;;;;5042778;28;20124;-73
2024/03/23 01:17:28;;;;;;;22.33;13.13;;;;;;;;;;5040059;28;20120;-74
2024/03/23 01:19:53;;;;;;;21.42;14.57;;;;;;;;;;5042746;28;20063;-74
2024/03/23 01:22:18;;;;;;;20.88;14.65;;;;;;;;;;5040600;28;20120;-74
2024/03/23 01:24:43;;;;;;;23.10;14.82;;;;;;;;;;5045433;28;20504;-73
2024/03/23 01:27:08;;;;;;;19.65;12.95;;;;;;;;;;5040918;28;20445;-74
2024/03/23 01:29:34;;;;;;;19.63;13.02;;;;;;;;;;5042232;28;20044;-74
2024/03/23 01:31:59;;;;;;;20.38;14.02;;;;;;;;;;5023734;28;20037;-74
2024/03/23 01:34:24;;;;;;;19.48;12.10;;;;;;;;;;5048259;28;20113;-74
2024/03/23 01:36:50;;;;;;;23.10;15.52;;;;;;;;;;5043762;28;20060;-74
2024/03/23 01:39:15;;;;;;;20.48;13.77;;;;;;;;;;5040440;28;20053;-73
2024/03/23 01:41:42;;;;;;;21.05;13.57;;;;;;;;;;5046032;28;20478;-74
2024/03/23 01:44:08;;;;;;;20.77;14.52;;;;;;;;;;5040577;28;20044;-73
2024/03/23 01:46:34;;;;;;;23.55;15.10;;;;;;;;;;5041323;28;20041;-74
2024/03/23 01:48:59;;;;;;;22.25;15.40;;;;;;;;;;5042183;28;20071;-74
2024/03/23 01:51:25;;;;;;;25.10;16.20;;;;;;;;;;5041471;28;20506;-74
2024/03/23 01:53:50;;;;;;;24.33;16.00;;;;;;;;;;5041022;28;20033;-74
2024/03/23 01:56:16;;;;;;;25.83;17.00;;;;;;;;;;5042963;28;20025;-74
2024/03/23 01:58:41;;;;;;;24.17;15.45;;;;;;;;;;5039124;28;20886;-74
2024/03/23 02:01:06;;;;;;;24.13;16.08;;;;;;;;;;5040153;28;20025;-74
2024/03/23 02:03:31;;;;;;;22.00;14.23;;;;;;;;;;5041541;28;20037;-74
2024/03/23 02:05:57;;;;;;;20.38;13.20;;;;;;;;;;5040289;28;20022;-74
2024/03/23 02:08:23;;;;;;;19.55;13.20;;;;;;;;;;5044383;28;20035;-74
2024/03/23 02:10:49;;;;;;;21.75;13.27;;;;;;;;;;5039835;28;20537;-74
2024/03/23 02:13:15;;;;;;;19.73;13.70;;;;;;;;;;5038300;28;20033;-74
2024/03/23 02:15:40;;;;;;;23.02;14.68;;;;;;;;;;5042424;28;20056;-74
2024/03/23 02:18:07;;;;;;;24.38;15.95;;;;;;;;;;5039247;28;20120;-74
2024/03/23 02:20:32;;;;;;;27.08;16.15;;;;;;;;;;5028046;28;20053;-74
2024/03/23 02:22:57;;;;;;;20.65;13.85;;;;;;;;;;5041300;28;20260;-74
2024/03/23 02:25:22;;;;;;;21.63;13.55;;;;;;;;;;5031662;28;20037;-74
2024/03/23 02:27:47;;;;;;;15.60;11.07;;;;;;;;;;5039960;28;20040;-74
2024/03/23 02:30:13;;;;;;;13.48;9.85;;;;;;;;;;5038440;28;20038;-74
2024/03/23 02:32:38;;;;;;;15.38;10.25;;;;;;;;;;5042262;28;20060;-74
2024/03/23 02:35:04;;;;;;;18.23;12.18;;;;;;;;;;5040778;28;20033;-74
2024/03/23 02:37:30;;;;;;;21.88;14.35;;;;;;;;;;5043390;28;20048;-74
2024/03/23 02:39:55;;;;;;;18.13;12.68;;;;;;;;;;5038610;28;20021;-74
2024/03/23 02:42:20;;;;;;;15.18;11.43;;;;;;;;;;5038563;28;20036;-74
2024/03/23 02:44:45;;;;;;;14.60;10.68;;;;;;;;;;5044841;28;20025;-74
2024/03/23 02:47:10;;;;;;;15.65;12.10;;;;;;;;;;5038693;28;20035;-74
2024/03/23 02:49:36;;;;;;;14.43;10.18;;;;;;;;;;5041897;28;20017;-74
2024/03/23 02:52:01;;;;;;;11.77;9.30;;;;;;;;;;5042958;28;20481;-74
2024/03/23 02:54:26;;;;;;;18.52;12.90;;;;;;;;;;5042090;28;20080;-74
2024/03/23 02:56:51;;;;;;;15.65;11.30;;;;;;;;;;5041756;28;20075;-74
2024/03/23 02:59:17;;;;;;;17.08;12.13;;;;;;;;;;5038852;28;20032;-73
2024/03/23 03:01:42;;;;;;;22.75;16.38;;;;;;;;;;5037142;28;20017;-74
2024/03/23 03:04:07;;;;;;;16.13;11.80;;;;;;;;;;5027864;28;20029;-74
2024/03/23 03:06:33;;;;;;;20.60;11.55;;;;;;;;;;5041931;28;20036;-74
2024/03/23 03:08:58;;;;;;;15.70;11.38;;;;;;;;;;5038740;28;20067;-74
2024/03/23 03:11:23;;;;;;;17.42;12.13;;;;;;;;;;5039104;28;20114;-73
2024/03/23 03:13:48;;;;;;;15.48;11.07;;;;;;;;;;5040753;28;20086;-73
2024/03/23 03:16:14;;;;;;;16.33;11.35;;;;;;;;;;5043384;28;20117;-74
2024/03/23 03:18:40;;;;;;;17.00;12.45;;;;;;;;;;5042949;28;20033;-74
2024/03/23 03:21:10;;;;;;;17.88;12.90;;;;;;;;;;5043820;28;20021;-74
2024/03/23 03:23:35;;;;;;;19.02;12.63;;;;;;;;;;5040382;28;20441;-76
2024/03/23 03:26:01;;;;;;;16.52;11.50;;;;;;;;;;5044133;28;20036;-74
2024/03/23 03:28:30;;;;;;;22.45;13.98;;;;;;;;;;5050112;28;20132;-74
2024/03/23 03:30:55;;;;;;;21.50;14.68;;;;;;;;;;5032527;28;20029;-75
2024/03/23 03:33:20;;;;;;;19.38;13.55;;;;;;;;;;5047346;28;20025;-75
2024/03/23 03:35:46;;;;;;;22.42;13.98;;;;;;;;;;5042676;28;20100;-75
2024/03/23 03:38:11;;;;;;;22.48;14.60;;;;;;;;;;5042328;28;20531;-75
2024/03/23 03:40:36;;;;;;;23.17;15.40;;;;;;;;;;5044963;28;20512;-75
2024/03/23 03:43:01;;;;;;;32.22;17.33;;;;;;;;;;5042176;28;20095;-75
2024/03/23 03:45:26;;;;;;;17.15;9.38;;;;;;;;;;5045779;28;20474;-75
2024/03/23 03:47:52;;;;;;;14.60;7.68;;;;;;;;;;5042313;28;20040;-75
2024/03/23 03:50:17;;;;;;;13.90;8.07;;;;;;;;;;5043014;28;20028;-74
2024/03/23 03:52:42;;;;;;;18.83;9.02;;;;;;;;;;5047553;28;20111;-74
2024/03/23 03:55:12;;;;;;;11.35;4.95;;;;;;;;;;5045377;28;20108;-74
2024/03/23 03:57:37;;;;;;;13.57;5.30;;;;;;;;;;5044849;28;20474;-75
2024/03/23 04:00:04;;;;;;;14.38;6.00;;;;;;;;;;5041121;28;20071;-74
2024/03/23 04:02:29;;;;;;;12.02;5.22;;;;;;;;;;5044693;28;20497;-74
2024/03/23 04:04:55;;;;;;;13.80;4.45;;;;;;;;;;5043448;28;20029;-75
2024/03/23 04:07:22;;;;;;;9.40;4.88;;;;;;;;;;5042645;28;20112;-74
2024/03/23 04:09:47;;;;;;;9.35;4.22;;;;;;;;;;5044234;28;20029;-74
2024/03/23 04:12:13;;;;;;;8.85;3.85;;;;;;;;;;5041527;28;20040;-74
2024/03/23 04:14:38;;;;;;;13.07;4.45;;;;;;;;;;5043876;28;20108;-74
2024/03/23 04:17:03;;;;;;;9.75;4.70;;;;;;;;;;5023794;28;20022;-74
2024/03/23 04:19:28;;;;;;;9.52;3.90;;;;;;;;;;5042671;28;20037;-74
2024/03/23 04:21:53;;;;;;;11.82;4.47;;;;;;;;;;5049328;28;20013;-74
2024/03/23 04:24:20;;;;;;;10.38;4.20;;;;;;;;;;5045101;28;20105;-74
2024/03/23 04:26:46;;;;;;;13.07;3.63;;;;;;;;;;5048170;28;20063;-74
2024/03/23 04:29:12;;;;;;;12.23;4.05;;;;;;;;;;5042180;28;20053;-74
2024/03/23 04:31:37;;;;;;;10.02;3.25;;;;;;;;;;5040365;28;20033;-74
2024/03/23 04:34:02;;;;;;;10.05;3.60;;;;;;;;;;5042504;28;20079;-74
2024/03/23 04:36:28;;;;;;;10.85;3.65;;;;;;;;;;5044537;28;20116;-74
2024/03/23 04:38:53;;;;;;;12.35;3.97;;;;;;;;;;5044890;28;20104;-75
2024/03/23 04:41:18;;;;;;;10.70;3.63;;;;;;;;;;5042343;28;20025;-74
2024/03/23 04:43:43;;;;;;;7.95;3.03;;;;;;;;;;5045857;28;20083;-73
2024/03/23 04:46:09;;;;;;;9.40;3.45;;;;;;;;;;5044167;28;20028;-74
2024/03/23 04:48:34;;;;;;;8.57;2.72;;;;;;;;;;5042479;28;20017;-74
2024/03/23 04:50:59;;;;;;;12.40;3.60;;;;;;;;;;5042021;28;20507;-74
2024/03/23 04:53:28;;;;;;;10.05;2.88;;;;;;;;;;5042274;28;20059;-74
2024/03/23 04:55:55;;;;;;;9.93;3.33;;;;;;;;;;5041306;28;20043;-74
2024/03/23 04:58:20;;;;;;;7.85;2.80;;;;;;;;;;5043170;28;20021;-74
2024/03/23 05:00:45;;;;;;;12.27;3.55;;;;;;;;;;5040399;28;20512;-74
2024/03/23 05:03:10;;;;;;;10.23;4.20;;;;;;;;;;5041353;28;20021;-74
2024/03/23 05:05:35;;;;;;;9.68;3.28;;;;;;;;;;5044048;28;20025;-74
2024/03/23 05:08:01;;;;;;;10.85;3.60;;;;;;;;;;5043067;28;20033;-74
2024/03/23 05:10:26;;;;;;;13.00;3.55;;;;;;;;;;5043887;28;20083;-74
2024/03/23 05:12:51;;;;;;;12.43;3.72;;;;;;;;;;5040382;28;20052;-74
2024/03/23 05:15:16;;;;;;;10.32;3.63;;;;;;;;;;5042700;28;20102;-74
2024/03/23 05:17:42;;;;;;;13.10;3.85;;;;;;;;;;5043777;28;20100;-74
2024/03/23 05:20:09;;;;;;;14.43;3.22;;;;;;;;;;5040087;28;20068;-74
2024/03/23 05:22:35;;;;;;;12.43;2.80;;;;;;;;;;5043384;28;20478;-74
2024/03/23 05:25:00;;;;;;;10.95;3.10;;;;;;;;;;5043241;28;20035;-74
2024/03/23 05:27:25;;;;;;;10.10;2.78;;;;;;;;;;5043342;28;20082;-74
2024/03/23 05:29:51;;;;;;;8.48;2.38;;;;;;;;;;5043509;28;20477;-74
2024/03/23 05:32:16;;;;;;;8.05;2.58;;;;;;;;;;5039386;28;20030;-74
2024/03/23 05:34:41;;;;;;;10.80;2.38;;;;;;;;;;5043104;28;20031;-74
2024/03/23 05:37:06;;;;;;;10.70;2.72;;;;;;;;;;5044926;28;20052;-74
2024/03/23 05:39:31;;;;;;;10.85;2.92;;;;;;;;;;5043072;28;20055;-74
2024/03/23 05:41:57;;;;;;;9.82;2.92;;;;;;;;;;5039770;28;20021;-74
2024/03/23 05:44:22;;;;;;;8.80;2.40;;;;;;;;;;5040425;28;20021;-74
2024/03/23 05:46:48;;;;;;;13.43;2.50;;;;;;;;;;5042297;28;20025;-74
2024/03/23 05:49:14;;;;;;;11.05;2.40;;;;;;;;;;5040186;28;20040;-74
2024/03/23 05:51:39;;;;;;;10.10;2.38;;;;;;;;;;5045042;28;20029;-74
2024/03/23 05:54:04;;;;;;;10.55;2.35;;;;;;;;;;5022762;28;20393;-74
2024/03/23 05:56:29;;;;;;;8.25;1.90;;;;;;;;;;5043062;28;20450;-74
2024/03/23 05:58:55;;;;;;;15.90;2.28;;;;;;;;;;5042904;28;20021;-74
2024/03/23 06:01:20;;;;;;;8.75;2.35;;;;;;;;;;5039877;28;20038;-74
2024/03/23 06:03:45;;;;;;;10.75;2.05;;;;;;;;;;5028492;28;20124;-74
2024/03/23 06:06:12;;;;;;;10.82;2.40;;;;;;;;;;5042822;28;20040;-74
2024/03/23 06:08:38;;;;;;;10.32;2.22;;;;;;;;;;5045126;28;20466;-74
2024/03/23 06:11:05;;;;;;;10.52;2.40;;;;;;;;;;5024106;28;20108;-74
2024/03/23 06:13:31;;;;;;;10.18;3.10;;;;;;;;;;5041260;28;20390;-74
2024/03/23 06:15:57;;;;;;;10.25;2.10;;;;;;;;;;5042627;28;20066;-74
2024/03/23 06:18:22;;;;;;;8.57;2.00;;;;;;;;;;5040715;28;20036;-75
2024/03/23 06:20:47;;;;;;;8.45;1.75;;;;;;;;;;5040611;28;20230;-74
2024/03/23 06:23:13;;;;;;;11.07;2.28;;;;;;;;;;5042442;28;20061;-74
2024/03/23 06:25:38;;;;;;;9.32;2.95;;;;;;;;;;5042486;28;20045;-74
2024/03/23 06:28:04;;;;;;;12.93;3.08;;;;;;;;;;5040822;28;20036;-74
2024/03/23 06:30:29;;;;;;;14.20;3.55;;;;;;;;;;5044544;28;20041;-74
2024/03/23 06:32:55;;;;;;;9.90;2.30;;;;;;;;;;5042158;28;20025;-74
2024/03/23 06:35:20;;;;;;;11.55;2.38;;;;;;;;;;5044508;28;20539;-74
2024/03/23 06:37:45;;;;;;;11.43;2.40;;;;;;;;;;5038795;28;20095;-74
2024/03/23 06:40:10;;;;;;;12.93;2.85;;;;;;;;;;5028241;28;20129;-74
2024/03/23 06:42:36;;;;;;;9.50;2.55;;;;;;;;;;5040983;28;20043;-74
2024/03/23 06:45:02;;;;;;;6.95;1.77;;;;;;;;;;5044086;28;20078;-74
2024/03/23 06:47:27;;;;;;;9.02;2.63;;;;;;;;;;5041460;28;20025;-74
2024/03/23 06:49:52;;;;;;;9.38;2.38;;;;;;;;;;5039306;28;20045;-74
2024/03/23 06:52:17;;;;;;;12.75;3.55;;;;;;;;;;5038083;28;20037;-74
2024/03/23 06:54:44;;;;;;;11.45;3.00;;;;;;;;;;5041388;28;20390;-74
2024/03/23 06:57:09;;;;;;;9.63;2.80;;;;;;;;;;5041333;28;20486;-74
2024/03/23 06:59:35;;;;;;;9.48;2.75;;;;;;;;;;5043594;28;20025;-74
2024/03/23 07:02:00;;;;;;;9.02;2.97;;;;;;;;;;5042659;28;20024;-74
2024/03/23 07:04:25;;;;;;;10.77;3.70;;;;;;;;;;5042577;28;20112;-74
2024/03/23 07:06:50;;;;;;;11.18;2.95;;;;;;;;;;5046249;28;20047;-74
2024/03/23 07:09:15;;;;;;;14.25;3.15;;;;;;;;;;5043340;28;20067;-74
2024/03/23 07:11:41;;;;;;;8.10;2.70;;;;;;;;;;5031877;28;20482;-74
2024/03/23 07:14:07;;;;;;;12.52;3.50;;;;;;;;;;5029778;28;20033;-74
2024/03/23 07:16:32;;;;;;;9.55;3.58;;;;;;;;;;5047182;28;20036;-74
2024/03/23 07:18:58;;;;;;;9.85;2.80;;;;;;;;;;5042152;28;20219;-74
2024/03/23 07:21:23;;;;;;;9.43;2.63;;;;;;;;;;5042189;28;20030;-74
2024/03/23 07:23:48;;;;;;;9.85;3.45;;;;;;;;;;5045601;28;20055;-74
2024/03/23 07:26:14;;;;;;;7.40;3.10;;;;;;;;;;5029054;28;20037;-74
2024/03/23 07:28:43;;;;;;;9.00;2.47;;;;;;;;;;5033518;28;20417;-74
2024/03/23 07:31:11;;;;;;;15.13;4.85;;;;;;;;;;5044955;28;20026;-74
2024/03/23 07:33:38;;;;;;;15.35;5.65;;;;;;;;;;5043127;28;20375;-74
2024/03/23 07:36:03;;;;;;;10.07;2.95;;;;;;;;;;5044713;28;20059;-74
2024/03/23 07:38:28;;;;;;;9.40;2.65;;;;;;;;;;5044999;28;20064;-74
2024/03/23 07:41:03;;;;;;;14.18;2.97;;;;;;;;;;5043690;28;20054;-74
2024/03/23 07:43:28;;;;;;;11.13;3.33;;;;;;;;;;5045098;28;20306;-74
2024/03/23 07:45:53;;;;;;;13.15;2.88;;;;;;;;;;5046000;28;20025;-74
2024/03/23 07:48:21;;;;;;;10.25;2.83;;;;;;;;;;5041648;28;20101;-75
2024/03/23 07:50:46;;;;;;;11.13;2.78;;;;;;;;;;5045176;28;20420;-74
2024/03/23 07:53:12;;;;;;;14.40;3.53;;;;;;;;;;5041357;28;20120;-74
2024/03/23 07:55:37;;;;;;;14.30;3.78;;;;;;;;;;5047809;28;20025;-74
2024/03/23 07:58:02;;;;;;;14.10;4.15;;;;;;;;;;5044664;28;20071;-74
2024/03/23 08:00:28;;;;;;;14.15;3.55;;;;;;;;;;5043830;28;20505;-74
2024/03/23 08:02:53;;;;;;;11.68;3.72;;;;;;;;;;5041481;28;20112;-74
2024/03/23 08:05:18;;;;;;;13.65;4.30;;;;;;;;;;5042678;28;20048;-74
2024/03/23 08:07:43;;;;;;;10.63;4.38;;;;;;;;;;5047173;28;20036;-74
2024/03/23 08:10:08;;;;;;;14.30;5.40;;;;;;;;;;5042255;28;20041;-74
2024/03/23 08:12:34;;;;;;;16.52;5.88;;;;;;;;;;5044598;28;20037;-75
2024/03/23 08:14:59;;;;;;;21.00;6.53;;;;;;;;;;5041370;28;20392;-75
2024/03/23 08:17:24;;;;;;;17.00;5.57;;;;;;;;;;5041462;28;20513;-74
2024/03/23 08:19:49;;;;;;;15.05;5.25;;;;;;;;;;5046184;28;20071;-74
2024/03/23 08:22:14;;;;;;;19.83;6.10;;;;;;;;;;5041043;28;20053;-74
2024/03/23 08:24:40;;;;;;;17.95;5.25;;;;;;;;;;5043959;28;20528;-74
2024/03/23 08:27:05;;;;;;;13.75;4.80;;;;;;;;;;5044139;28;20022;-74
2024/03/23 08:29:30;;;;;;;13.82;5.22;;;;;;;;;;5041089;28;20163;-74
2024/03/23 08:31:55;;;;;;;13.20;5.72;;;;;;;;;;5043954;28;20108;-74
2024/03/23 08:34:20;;;;;;;11.90;3.92;;;;;;;;;;5040793;28;20413;-74
2024/03/23 08:36:46;;;;;;;14.02;4.82;;;;;;;;;;5046785;28;20025;-74
2024/03/23 08:39:11;;;;;;;19.33;6.10;;;;;;;;;;5043336;28;20549;-74
2024/03/23 08:41:36;;;;;;;17.25;6.82;;;;;;;;;;5043890;28;20031;-74
2024/03/23 08:44:01;;;;;;;16.38;6.25;;;;;;;;;;5040510;28;20024;-74
2024/03/23 08:46:27;;;;;;;16.60;6.95;;;;;;;;;;5041962;28;20033;-74
2024/03/23 08:48:52;;;;;;;16.77;6.32;;;;;;;;;;5043398;28;20082;-74
2024/03/23 08:51:18;;;;;;;21.40;7.05;;;;;;;;;;5041450;28;20040;-74
2024/03/23 08:53:43;;;;;;;20.30;6.88;;;;;;;;;;5044029;28;20476;-74
2024/03/23 08:56:09;;;;;;;20.30;7.07;;;;;;;;;;5046125;28;20021;-74
2024/03/23 08:58:35;;;;;;;18.50;6.07;;;;;;;;;;5041711;28;20030;-74
2024/03/23 09:01:04;;;;;;;17.85;6.07;;;;;;;;;;5042434;28;20078;-74
2024/03/23 09:03:29;;;;;;;14.02;5.35;;;;;;;;;;5046745;28;20535;-74
2024/03/23 09:05:55;;;;;;;21.35;5.82;;;;;;;;;;5044587;28;20025;-74
2024/03/23 09:08:20;;;;;;;17.02;6.07;;;;;;;;;;5032415;28;20048;-75
2024/03/23 09:10:45;;;;;;;17.60;6.60;;;;;;;;;;5042088;28;20049;-76
2024/03/23 09:13:10;;;;;;;19.20;6.35;;;;;;;;;;5046780;28;20044;-77
2024/03/23 09:15:36;;;;;;;17.17;5.20;;;;;;;;;;5030043;28;20390;-77
2024/03/23 09:18:02;;;;;;;15.25;4.72;;;;;;;;;;5045859;28;20033;-77
2024/03/23 09:20:27;;;;;;;13.70;4.20;;;;;;;;;;5049130;28;20056;-76
2024/03/23 09:22:53;;;;;;;8.48;3.40;;;;;;;;;;5044896;28;20041;-77
2024/03/23 09:25:18;;;;;;;10.05;3.55;;;;;;;;;;5044967;28;20045;-77
2024/03/23 09:27:45;;;;;;;11.25;3.95;;;;;;;;;;5049143;28;20054;-77
2024/03/23 09:30:11;;;;;;;10.80;2.85;;;;;;;;;;5040904;28;20486;-77
2024/03/23 09:32:36;;;;;;;5.65;1.92;;;;;;;;;;5045777;28;20037;-77
2024/03/23 09:35:01;;;;;;;4.43;1.20;;;;;;;;;;5043524;28;20021;-77
2024/03/23 09:37:26;;;;;;;1.67;0.70;;;;;;;;;;5044413;28;20524;-77
2024/03/23 09:39:51;;;;;;;3.65;0.73;;;;;;;;;;5043192;28;20036;-76
2024/03/23 09:42:17;;;;;;;2.28;0.55;;;;;;;;;;5040854;28;20033;-77
2024/03/23 09:44:42;;;;;;;1.98;0.68;;;;;;;;;;5042850;28;20029;-77
2024/03/23 09:47:08;;;;;;;1.77;0.50;;;;;;;;;;5042007;28;20098;-75
2024/03/23 09:49:36;;;;;;;2.28;0.30;;;;;;;;;;5043161;28;20033;-76
2024/03/23 09:52:01;;;;;;;4.75;0.60;;;;;;;;;;5041637;28;20393;-76
2024/03/23 09:54:26;;;;;;;2.60;0.80;;;;;;;;;;5039082;28;20116;-77
2024/03/23 09:56:52;;;;;;;1.90;0.55;;;;;;;;;;5043986;28;20104;-75
2024/03/23 09:59:17;;;;;;;2.80;1.00;;;;;;;;;;5039450;28;20029;-76
2024/03/23 10:01:42;;;;;;;1.05;0.22;;;;;;;;;;5042672;28;20145;-76
2024/03/23 10:04:08;;;;;;;1.75;0.50;;;;;;;;;;5042723;28;20399;-75
2024/03/23 10:06:34;;;;;;;2.30;0.40;;;;;;;;;;5041784;28;20428;-76
2024/03/23 10:08:59;;;;;;;1.95;1.23;;;;;;;;;;5042334;28;20485;-76
2024/03/23 10:11:25;;;;;;;3.95;0.40;;;;;;;;;;5039654;28;20065;-76
2024/03/23 10:13:50;;;;;;;2.25;0.50;;;;;;;;;;5026584;28;20400;-76
2024/03/23 10:16:22;;;;;;;1.42;0.43;;;;;;;;;;5040363;28;20033;-77
2024/03/23 10:18:48;;;;;;;2.50;0.50;;;;;;;;;;5040887;28;20704;-77
2024/03/23 10:21:14;;;;;;;1.45;0.50;;;;;;;;;;5038928;28;20175;-77
2024/03/23 10:23:41;;;;;;;1.73;0.20;;;;;;;;;;5041039;28;20421;-76
2024/03/23 10:26:22;;;;;;;1.80;0.40;;;;;;;;;;5041820;28;20521;-76
2024/03/23 10:28:57;;;;;;;0.47;0.23;;;;;;;;;;5041212;28;20032;-77
2024/03/23 10:31:23;;;;;;;1.27;0.20;;;;;;;;;;5040858;28;20029;-77
2024/03/23 10:33:48;;;;;;;0.60;0.20;;;;;;;;;;5038920;28;20032;-77
2024/03/23 10:36:13;;;;;;;0.47;0.20;;;;;;;;;;5041055;28;20131;-77
2024/03/23 10:38:42;;;;;;;1.52;0.40;;;;;;;;;;5041852;28;20037;-77
2024/03/23 10:41:11;;;;;;;0.60;0.40;;;;;;;;;;5039367;28;20029;-76
2024/03/23 10:43:37;;;;;;;1.15;0.40;;;;;;;;;;5030005;28;20103;-77
2024/03/23 10:46:03;;;;;;;2.47;0.52;;;;;;;;;;5041299;28;20030;-76
2024/03/23 10:48:28;;;;;;;2.42;0.95;;;;;;;;;;5039015;28;20091;-77
2024/03/23 10:50:53;;;;;;;3.92;1.30;;;;;;;;;;5043609;28;20417;-77
2024/03/23 10:53:19;;;;;;;3.00;0.90;;;;;;;;;;5038514;28;20079;-76
2024/03/23 10:55:45;;;;;;;2.20;0.75;;;;;;;;;;5045974;28;20477;-77
2024/03/23 10:58:12;;;;;;;3.15;0.75;;;;;;;;;;5039175;28;20064;-77
2024/03/23 11:00:37;;;;;;;0.28;0.20;;;;;;;;;;5042180;28;20037;-77
2024/03/23 11:03:21;;;;;;;1.83;0.65;;;;;;;;;;5040506;28;20033;-76
2024/03/23 11:05:47;;;;;;;3.67;1.38;;;;;;;;;;5042926;28;20033;-76
2024/03/23 11:08:29;;;;;;;6.15;1.38;;;;;;;;;;5040971;28;20490;-77
2024/03/23 11:11:11;;;;;;;0.90;0.32;;;;;;;;;;5040907;28;20397;-77
2024/03/23 11:13:36;;;;;;;1.07;0.30;;;;;;;;;;5043604;28;20037;-76
2024/03/23 11:16:12;;;;;;;3.10;0.38;;;;;;;;;;5029377;28;20279;-76
2024/03/23 11:18:37;;;;;;;1.00;0.47;;;;;;;;;;5039901;28;20029;-76
2024/03/23 11:21:03;;;;;;;1.45;0.43;;;;;;;;;;5040447;28;20036;-77
2024/03/23 11:23:28;;;;;;;1.10;0.30;;;;;;;;;;5039689;28;20060;-77
2024/03/23 11:25:53;;;;;;;1.83;0.47;;;;;;;;;;5042654;28;20024;-76
2024/03/23 11:28:18;;;;;;;1.55;0.50;;;;;;;;;;5038058;28;20038;-77
2024/03/23 11:30:44;;;;;;;0.77;0.28;;;;;;;;;;5024858;28;20021;-77
2024/03/23 11:33:09;;;;;;;1.73;0.47;;;;;;;;;;5039816;28;20035;-75
2024/03/23 11:35:37;;;;;;;1.08;0.47;;;;;;;;;;5043902;28;20033;-77
2024/03/23 11:38:05;;;;;;;1.98;0.65;;;;;;;;;;5043555;28;20021;-77
2024/03/23 11:40:31;;;;;;;3.17;0.85;;;;;;;;;;5041528;28;20037;-77
2024/03/23 11:42:58;;;;;;;1.70;0.65;;;;;;;;;;5038381;28;20036;-77
2024/03/23 11:45:23;;;;;;;2.53;0.95;;;;;;;;;;5041316;28;20025;-77
2024/03/23 11:47:48;;;;;;;5.70;1.00;;;;;;;;;;5030031;28;20785;-77
2024/03/23 11:50:19;;;;;;;0.80;0.30;;;;;;;;;;5042508;28;20018;-76
2024/03/23 11:52:45;;;;;;;1.92;0.80;;;;;;;;;;5045211;28;20481;-77
2024/03/23 11:55:10;;;;;;;2.13;1.08;;;;;;;;;;5043914;28;20041;-76
2024/03/23 11:57:35;;;;;;;2.50;1.27;;;;;;;;;;5041846;28;20037;-77
2024/03/23 12:00:00;;;;;;;2.45;1.17;;;;;;;;;;5047377;28;20025;-77
2024/03/23 12:02:26;;;;;;;2.58;1.02;;;;;;;;;;5042178;28;20493;-77
2024/03/23 12:04:51;;;;;;;2.60;1.05;;;;;;;;;;5045407;28;20060;-77
2024/03/23 12:07:22;;;;;;;3.42;0.90;;;;;;;;;;5048605;28;20404;-77
2024/03/23 12:10:06;;;;;;;1.92;0.93;;;;;;;;;;5035220;28;20555;-77
2024/03/23 12:12:31;;;;;;;3.08;0.88;;;;;;;;;;5045635;28;20573;-77
2024/03/23 12:15:07;;;;;;;3.55;1.20;;;;;;;;;;5047550;28;20068;-77
2024/03/23 12:17:34;;;;;;;2.88;1.08;;;;;;;;;;5046403;28;20030;-77
2024/03/23 12:19:59;;;;;;;3.78;0.90;;;;;;;;;;5032551;28;20029;-77
2024/03/23 12:22:25;;;;;;;2.25;0.70;;;;;;;;;;5045052;28;20120;-77
2024/03/23 12:24:50;;;;;;;2.75;0.93;;;;;;;;;;5046515;28;20029;-77
2024/03/23 12:27:15;;;;;;;2.80;1.08;;;;;;;;;;5044187;28;20025;-77
2024/03/23 12:29:43;;;;;;;3.72;1.20;;;;;;;;;;5044715;28;20044;-77
2024/03/23 12:32:08;;;;;;;4.18;1.10;;;;;;;;;;5043130;28;20053;-76
2024/03/23 12:34:33;;;;;;;4.55;1.15;;;;;;;;;;5044380;28;20422;-77
2024/03/23 12:36:58;;;;;;;2.88;1.10;;;;;;;;;;5046764;28;20036;-77
2024/03/23 12:39:24;;;;;;;4.22;1.10;;;;;;;;;;5042401;28;20034;-77
2024/03/23 12:41:49;;;;;;;4.28;1.20;;;;;;;;;;5027926;28;20025;-77
2024/03/23 12:44:15;;;;;;;5.30;1.45;;;;;;;;;;5043662;28;20099;-76
2024/03/23 12:46:40;;;;;;;4.28;1.10;;;;;;;;;;5046255;28;20017;-76
2024/03/23 12:49:06;;;;;;;2.35;1.10;;;;;;;;;;5041296;28;20034;-77
2024/03/23 12:51:31;;;;;;;3.97;1.20;;;;;;;;;;5045782;28;20033;-77
2024/03/23 12:53:56;;;;;;;7.43;1.70;;;;;;;;;;5040316;28;20028;-77
2024/03/23 12:56:22;;;;;;;5.20;1.17;;;;;;;;;;5043949;28;20041;-76
2024/03/23 12:58:51;;;;;;;3.70;1.33;;;;;;;;;;5046402;28;20047;-77
2024/03/23 13:01:16;;;;;;;3.78;0.90;;;;;;;;;;5027631;28;20033;-75
2024/03/23 13:03:44;;;;;;;3.88;1.20;;;;;;;;;;5043888;28;20033;-76
2024/03/23 13:06:09;;;;;;;4.03;0.90;;;;;;;;;;5043532;28;20026;-76
2024/03/23 13:08:34;;;;;;;4.38;1.20;;;;;;;;;;5041443;28;20398;-75
2024/03/23 13:11:00;;;;;;;8.05;1.55;;;;;;;;;;5043147;28;20083;-76
2024/03/23 13:13:25;;;;;;;4.80;0.93;;;;;;;;;;5040600;28;20398;-76
2024/03/23 13:15:50;;;;;;;4.35;1.13;;;;;;;;;;5044003;28;20051;-76
2024/03/23 13:18:16;;;;;;;5.55;1.10;;;;;;;;;;5040658;28;20034;-76
2024/03/23 13:20:41;;;;;;;4.93;1.58;;;;;;;;;;5039996;28;20033;-76
2024/03/23 13:23:06;;;;;;;6.07;1.42;;;;;;;;;;5042468;28;20045;-76
2024/03/23 13:25:31;;;;;;;7.10;1.45;;;;;;;;;;5042977;28;20029;-76
2024/03/23 13:27:56;;;;;;;7.35;1.40;;;;;;;;;;5044417;28;20029;-76
2024/03/23 13:30:22;;;;;;;6.25;1.48;;;;;;;;;;5040658;28;20034;-76
2024/03/23 13:32:47;;;;;;;8.27;1.75;;;;;;;;;;5041082;28;20079;-75
2024/03/23 13:35:12;;;;;;;9.27;1.90;;;;;;;;;;5046580;28;20166;-75
2024/03/23 13:37:38;;;;;;;4.13;1.10;;;;;;;;;;5048846;28;20373;-75
2024/03/23 13:40:03;;;;;;;4.72;1.38;;;;;;;;;;5041884;28;20447;-75
2024/03/23 13:42:28;;;;;;;6.85;1.55;;;;;;;;;;5040621;28;20030;-75
2024/03/23 13:44:54;;;;;;;5.72;1.42;;;;;;;;;;5041638;28;20702;-75
2024/03/23 13:47:19;;;;;;;3.67;1.20;;;;;;;;;;5043753;28;20056;-75
2024/03/23 13:49:44;;;;;;;6.22;1.85;;;;;;;;;;5043595;28;20057;-75
2024/03/23 13:52:09;;;;;;;5.28;1.50;;;;;;;;;;5041223;28;20036;-74
2024/03/23 13:54:35;;;;;;;6.65;2.03;;;;;;;;;;5040705;28;20021;-75
2024/03/23 13:57:01;;;;;;;7.15;1.83;;;;;;;;;;5042347;28;20515;-75
2024/03/23 13:59:27;;;;;;;6.70;1.60;;;;;;;;;;5042509;28;20033;-75
2024/03/23 14:01:53;;;;;;;5.20;1.38;;;;;;;;;;5039018;28;20056;-76
2024/03/23 14:04:22;;;;;;;5.30;1.50;;;;;;;;;;5040227;28;20060;-75
2024/03/23 14:06:47;;;;;;;6.43;1.88;;;;;;;;;;5044499;28;20029;-75
2024/03/23 14:09:14;;;;;;;10.15;1.85;;;;;;;;;;5041454;28;20401;-75
2024/03/23 14:11:41;;;;;;;8.27;1.80;;;;;;;;;;5047396;28;20036;-74
2024/03/23 14:14:06;;;;;;;7.93;2.25;;;;;;;;;;5038943;28;20045;-75
2024/03/23 14:16:31;;;;;;;6.95;1.30;;;;;;;;;;5042206;28;20375;-75
2024/03/23 14:18:57;;;;;;;6.22;1.13;;;;;;;;;;5042513;28;20044;-75
2024/03/23 14:21:22;;;;;;;7.43;1.83;;;;;;;;;;5038753;28;20439;-75
2024/03/23 14:23:47;;;;;;;5.03;1.48;;;;;;;;;;5044603;28;20111;-74
2024/03/23 14:26:13;;;;;;;6.97;1.67;;;;;;;;;;5038871;28;20037;-75